DAL7 KLAX-RJTT
Flight info
| Callsign | DAL7 |
|---|---|
| Flight time | 3h 10m |
| Altitude | 36000 |
| Route | SUMMR2 MCKEY DCT LIBBO DCT BRINY DCT BOARS DCT AMAKR DCT REDWD DCT UNVER DCT 42N130W 46N140W 50N150W/N0490F380 52N160W 53N170W 52N180E DCT CHIPT DCT CARTO/N0488F400 DCT CUTEE DCT KALIG KALNA OTR5 ADNAP Y807 POLIX |
| Aircraft | A359/H-SDE2E3GHIJ3J4J5LM1ORWXY/LB1D1 |
Departure
| Time | 2026-05-04 01:27 |
|---|---|
| Airport | Los Angeles International Airport (KLAX) |
Arrival
| Time | 2026-05-04 04:37 |
|---|---|
| Airport | Tokyo Haneda International Airport (RJTT) |
| Time | Latitude | Longitude | Altitude | Speed | Heading |
|---|---|---|---|---|---|
| 2026-05-04 01:11 | 33.94710 | -118.40665 | 101 ft | 0 kts | 220° |
| 2026-05-04 01:15 | 33.94711 | -118.40664 | 101 ft | 2 kts | 220° |
| 2026-05-04 01:15 | 33.94727 | -118.40648 | 101 ft | 4 kts | 222° |
| 2026-05-04 01:15 | 33.94743 | -118.40626 | 101 ft | 4 kts | 245° |
| 2026-05-04 01:16 | 33.94749 | -118.40601 | 103 ft | 4 kts | 279° |
| 2026-05-04 01:16 | 33.94746 | -118.40583 | 100 ft | 4 kts | 328° |
| 2026-05-04 01:16 | 33.94727 | -118.40577 | 102 ft | 4 kts | 353° |
| 2026-05-04 01:16 | 33.94707 | -118.40574 | 100 ft | 0 kts | 353° |
| 2026-05-04 01:22 | 33.94720 | -118.40576 | 100 ft | 6 kts | 353° |
| 2026-05-04 01:22 | 33.94769 | -118.40583 | 103 ft | 7 kts | 350° |
| 2026-05-04 01:23 | 33.94815 | -118.40596 | 105 ft | 6 kts | 347° |
| 2026-05-04 01:23 | 33.94845 | -118.40593 | 105 ft | 3 kts | 21° |
| 2026-05-04 01:23 | 33.94850 | -118.40589 | 105 ft | 0 kts | 33° |
| 2026-05-04 01:23 | 33.94861 | -118.40571 | 106 ft | 7 kts | 59° |
| 2026-05-04 01:24 | 33.94875 | -118.40483 | 106 ft | 13 kts | 83° |
| 2026-05-04 01:24 | 33.94887 | -118.40371 | 106 ft | 14 kts | 82° |
| 2026-05-04 01:24 | 33.94899 | -118.40253 | 106 ft | 15 kts | 83° |
| 2026-05-04 01:24 | 33.94911 | -118.40128 | 106 ft | 16 kts | 83° |
| 2026-05-04 01:25 | 33.94925 | -118.39996 | 105 ft | 16 kts | 81° |
| 2026-05-04 01:25 | 33.94987 | -118.39915 | 110 ft | 10 kts | 9° |
| 2026-05-04 01:25 | 33.95029 | -118.39932 | 113 ft | 5 kts | 315° |
| 2026-05-04 01:25 | 33.95036 | -118.40007 | 112 ft | 12 kts | 263° |
| 2026-05-04 01:26 | 33.95028 | -118.40107 | 115 ft | 12 kts | 264° |
| 2026-05-04 01:26 | 33.95006 | -118.40300 | 114 ft | 46 kts | 263° |
| 2026-05-04 01:26 | 33.94943 | -118.40907 | 113 ft | 99 kts | 263° |
| 2026-05-04 01:26 | 33.94840 | -118.41915 | 113 ft | 143 kts | 263° |
| 2026-05-04 01:27 | 33.94703 | -118.43181 | 454 ft | 154 kts | 262° |
| 2026-05-04 01:27 | 33.94548 | -118.44452 | 1006 ft | 153 kts | 260° |
| 2026-05-04 01:27 | 33.94380 | -118.45716 | 1551 ft | 155 kts | 260° |
| 2026-05-04 01:27 | 33.94241 | -118.47041 | 1861 ft | 165 kts | 264° |
| 2026-05-04 01:28 | 33.94190 | -118.48483 | 2107 ft | 181 kts | 269° |
| 2026-05-04 01:28 | 33.94218 | -118.50070 | 2342 ft | 198 kts | 270° |
| 2026-05-04 01:28 | 33.94199 | -118.51782 | 2727 ft | 209 kts | 266° |
| 2026-05-04 01:28 | 33.94035 | -118.53563 | 3110 ft | 221 kts | 262° |
| 2026-05-04 01:29 | 33.93835 | -118.55462 | 3415 ft | 236 kts | 263° |
| 2026-05-04 01:29 | 33.93632 | -118.57495 | 3717 ft | 253 kts | 264° |
| 2026-05-04 01:29 | 33.93459 | -118.59623 | 4270 ft | 257 kts | 265° |
| 2026-05-04 01:29 | 33.93326 | -118.61796 | 4782 ft | 264 kts | 266° |
| 2026-05-04 01:30 | 33.93199 | -118.64014 | 5446 ft | 265 kts | 266° |
| 2026-05-04 01:30 | 33.93066 | -118.66215 | 6200 ft | 263 kts | 266° |
| 2026-05-04 01:30 | 33.92928 | -118.68411 | 6899 ft | 263 kts | 265° |
| 2026-05-04 01:30 | 33.92767 | -118.70621 | 7502 ft | 267 kts | 264° |
| 2026-05-04 01:31 | 33.92567 | -118.72874 | 8072 ft | 273 kts | 262° |
| 2026-05-04 01:31 | 33.92330 | -118.75166 | 8674 ft | 278 kts | 261° |
| 2026-05-04 01:31 | 33.92069 | -118.77483 | 9306 ft | 282 kts | 261° |
| 2026-05-04 01:31 | 33.91815 | -118.79842 | 9967 ft | 285 kts | 261° |
| 2026-05-04 01:32 | 33.91626 | -118.82210 | 10445 ft | 295 kts | 265° |
| 2026-05-04 01:32 | 33.91609 | -118.84760 | 10686 ft | 313 kts | 270° |
| 2026-05-04 01:32 | 33.91755 | -118.87433 | 10963 ft | 328 kts | 272° |
| 2026-05-04 01:32 | 33.91931 | -118.90235 | 11235 ft | 342 kts | 272° |
| 2026-05-04 01:33 | 33.92052 | -118.93152 | 11506 ft | 355 kts | 269° |
| 2026-05-04 01:33 | 33.92118 | -118.96170 | 11779 ft | 367 kts | 269° |
| 2026-05-04 01:33 | 33.92215 | -118.99273 | 12197 ft | 374 kts | 272° |
| 2026-05-04 01:33 | 33.92768 | -119.02362 | 12682 ft | 383 kts | 289° |
| 2026-05-04 01:34 | 33.94015 | -119.05226 | 13215 ft | 389 kts | 298° |
| 2026-05-04 01:34 | 33.95459 | -119.08003 | 13730 ft | 393 kts | 299° |
| 2026-05-04 01:34 | 33.96927 | -119.10798 | 14210 ft | 396 kts | 299° |
| 2026-05-04 01:34 | 33.98394 | -119.13610 | 14771 ft | 396 kts | 298° |
| 2026-05-04 01:35 | 33.99861 | -119.16413 | 15361 ft | 396 kts | 300° |
| 2026-05-04 01:35 | 34.01609 | -119.19002 | 15884 ft | 403 kts | 312° |
| 2026-05-04 01:35 | 34.03813 | -119.21125 | 16438 ft | 408 kts | 320° |
| 2026-05-04 01:35 | 34.06142 | -119.23115 | 16969 ft | 411 kts | 320° |
| 2026-05-04 01:36 | 34.08491 | -119.25106 | 17505 ft | 413 kts | 320° |
| 2026-05-04 01:36 | 34.10840 | -119.27109 | 18001 ft | 415 kts | 319° |
| 2026-05-04 01:36 | 34.13201 | -119.29131 | 18500 ft | 417 kts | 319° |
| 2026-05-04 01:36 | 34.15572 | -119.31168 | 18925 ft | 420 kts | 319° |
| 2026-05-04 01:37 | 34.17955 | -119.33219 | 19380 ft | 421 kts | 318° |
| 2026-05-04 01:37 | 34.20350 | -119.35282 | 19822 ft | 423 kts | 317° |
| 2026-05-04 01:37 | 34.22750 | -119.37353 | 20295 ft | 425 kts | 317° |
| 2026-05-04 01:37 | 34.25164 | -119.39437 | 20730 ft | 427 kts | 317° |
| 2026-05-04 01:38 | 34.27586 | -119.41529 | 21174 ft | 429 kts | 316° |
| 2026-05-04 01:38 | 34.30025 | -119.43638 | 21625 ft | 431 kts | 316° |
| 2026-05-04 01:38 | 34.32430 | -119.45719 | 22068 ft | 432 kts | 316° |
| 2026-05-04 01:38 | 34.34849 | -119.47814 | 22508 ft | 434 kts | 315° |
| 2026-05-04 01:39 | 34.37309 | -119.49947 | 22946 ft | 436 kts | 315° |
| 2026-05-04 01:39 | 34.39758 | -119.52115 | 23393 ft | 435 kts | 312° |
| 2026-05-04 01:39 | 34.41975 | -119.54539 | 23798 ft | 426 kts | 304° |
| 2026-05-04 01:39 | 34.43944 | -119.57208 | 24180 ft | 424 kts | 302° |
| 2026-05-04 01:40 | 34.45861 | -119.59932 | 24555 ft | 426 kts | 301° |
| 2026-05-04 01:40 | 34.47785 | -119.62677 | 24963 ft | 428 kts | 301° |
| 2026-05-04 01:40 | 34.49711 | -119.65421 | 25418 ft | 427 kts | 301° |
| 2026-05-04 01:40 | 34.51638 | -119.68159 | 25847 ft | 428 kts | 302° |
| 2026-05-04 01:41 | 34.53583 | -119.70922 | 26138 ft | 432 kts | 301° |
| 2026-05-04 01:41 | 34.55532 | -119.73703 | 26499 ft | 433 kts | 302° |
| 2026-05-04 01:41 | 34.57491 | -119.76491 | 26861 ft | 435 kts | 301° |
| 2026-05-04 01:41 | 34.59460 | -119.79298 | 27238 ft | 438 kts | 301° |
| 2026-05-04 01:42 | 34.61438 | -119.82120 | 27624 ft | 439 kts | 301° |
| 2026-05-04 01:42 | 34.63421 | -119.84949 | 27985 ft | 441 kts | 301° |
| 2026-05-04 01:42 | 34.65412 | -119.87795 | 28337 ft | 443 kts | 301° |
| 2026-05-04 01:42 | 34.67409 | -119.90650 | 28688 ft | 445 kts | 301° |
| 2026-05-04 01:43 | 34.69417 | -119.93523 | 29012 ft | 447 kts | 301° |
| 2026-05-04 01:43 | 34.71431 | -119.96406 | 29373 ft | 448 kts | 301° |
| 2026-05-04 01:43 | 34.73450 | -119.99299 | 29772 ft | 448 kts | 301° |
| 2026-05-04 01:43 | 34.75462 | -120.02178 | 30249 ft | 445 kts | 301° |
| 2026-05-04 01:44 | 34.77460 | -120.05040 | 30705 ft | 442 kts | 300° |
| 2026-05-04 01:44 | 34.79448 | -120.07893 | 31031 ft | 441 kts | 300° |
| 2026-05-04 01:44 | 34.81426 | -120.10739 | 31445 ft | 439 kts | 300° |
| 2026-05-04 01:44 | 34.83391 | -120.13566 | 31833 ft | 437 kts | 299° |
| 2026-05-04 01:45 | 34.85352 | -120.16389 | 32183 ft | 436 kts | 299° |
| 2026-05-04 01:45 | 34.87303 | -120.19202 | 32500 ft | 434 kts | 299° |
| 2026-05-04 01:45 | 34.91190 | -120.24811 | 33097 ft | 433 kts | 298° |
| 2026-05-04 01:46 | 34.93129 | -120.27616 | 33420 ft | 432 kts | 298° |
| 2026-05-04 01:46 | 34.95063 | -120.30413 | 33727 ft | 431 kts | 298° |
| 2026-05-04 01:46 | 34.96987 | -120.33196 | 34029 ft | 428 kts | 298° |
| 2026-05-04 01:46 | 34.98879 | -120.35938 | 34174 ft | 430 kts | 298° |
| 2026-05-04 01:47 | 35.00812 | -120.38744 | 34284 ft | 433 kts | 298° |
| 2026-05-04 01:47 | 35.02748 | -120.41553 | 34468 ft | 433 kts | 298° |
| 2026-05-04 01:47 | 35.04716 | -120.44410 | 34674 ft | 434 kts | 298° |
| 2026-05-04 01:47 | 35.06658 | -120.47230 | 34846 ft | 434 kts | 299° |
| 2026-05-04 01:48 | 35.08575 | -120.50017 | 35020 ft | 435 kts | 299° |
| 2026-05-04 01:48 | 35.10650 | -120.53036 | 35199 ft | 435 kts | 299° |
| 2026-05-04 01:48 | 35.14541 | -120.58704 | 35564 ft | 436 kts | 299° |
| 2026-05-04 01:48 | 35.18210 | -120.64058 | 35874 ft | 436 kts | 300° |
| 2026-05-04 01:49 | 35.20160 | -120.66908 | 36003 ft | 438 kts | 300° |
| 2026-05-04 01:49 | 35.22438 | -120.70239 | 36019 ft | 442 kts | 300° |
| 2026-05-04 01:49 | 35.30339 | -120.81816 | 36020 ft | 443 kts | 300° |
| 2026-05-04 01:50 | 35.38224 | -120.93409 | 36027 ft | 443 kts | 300° |
| 2026-05-04 01:50 | 35.46090 | -121.05014 | 36027 ft | 442 kts | 299° |
| 2026-05-04 01:51 | 35.54031 | -121.16588 | 36024 ft | 444 kts | 300° |
| 2026-05-04 01:51 | 35.62069 | -121.28105 | 36028 ft | 444 kts | 300° |
| 2026-05-04 01:52 | 35.70081 | -121.39690 | 36014 ft | 445 kts | 300° |
| 2026-05-04 01:52 | 35.78090 | -121.51315 | 36028 ft | 446 kts | 300° |
| 2026-05-04 01:53 | 35.86064 | -121.62925 | 36032 ft | 447 kts | 300° |
| 2026-05-04 01:53 | 35.94093 | -121.74658 | 36029 ft | 448 kts | 300° |
| 2026-05-04 01:54 | 36.03325 | -121.85342 | 36029 ft | 479 kts | 320° |
| 2026-05-04 01:54 | 36.15323 | -121.92969 | 36037 ft | 487 kts | 323° |
| 2026-05-04 01:55 | 36.27449 | -122.00483 | 36036 ft | 488 kts | 323° |
| 2026-05-04 01:55 | 36.39561 | -122.08105 | 36034 ft | 489 kts | 324° |
| 2026-05-04 01:56 | 36.51729 | -122.15787 | 36032 ft | 491 kts | 325° |
| 2026-05-04 01:56 | 36.63926 | -122.23512 | 36034 ft | 493 kts | 326° |
| 2026-05-04 01:57 | 36.76158 | -122.31287 | 36031 ft | 494 kts | 327° |
| 2026-05-04 01:57 | 36.88442 | -122.39125 | 36024 ft | 496 kts | 328° |
| 2026-05-04 01:58 | 37.00754 | -122.47007 | 36012 ft | 498 kts | 328° |
| 2026-05-04 01:58 | 37.13099 | -122.54940 | 36001 ft | 499 kts | 329° |
| 2026-05-04 01:59 | 37.25462 | -122.62915 | 36009 ft | 500 kts | 329° |
| 2026-05-04 01:59 | 37.38130 | -122.70006 | 36017 ft | 504 kts | 335° |
| 2026-05-04 02:00 | 37.51173 | -122.76503 | 36019 ft | 505 kts | 336° |
| 2026-05-04 02:00 | 37.64236 | -122.83049 | 35998 ft | 505 kts | 336° |
| 2026-05-04 02:01 | 37.77304 | -122.89632 | 35994 ft | 506 kts | 337° |
| 2026-05-04 02:01 | 37.90388 | -122.96247 | 35995 ft | 506 kts | 338° |
| 2026-05-04 02:02 | 38.03478 | -123.02891 | 35996 ft | 507 kts | 338° |
| 2026-05-04 02:02 | 38.15899 | -123.09218 | 35992 ft | 507 kts | 338° |
| 2026-05-04 02:03 | 38.22403 | -123.12710 | 35988 ft | 508 kts | 332° |
| 2026-05-04 02:03 | 38.29001 | -123.17656 | 35985 ft | 508 kts | 328° |
| 2026-05-04 02:04 | 38.40974 | -123.27254 | 35983 ft | 508 kts | 328° |
| 2026-05-04 02:04 | 38.52937 | -123.36870 | 35988 ft | 508 kts | 329° |
| 2026-05-04 02:05 | 38.64902 | -123.46503 | 35990 ft | 508 kts | 329° |
| 2026-05-04 02:05 | 38.76785 | -123.56110 | 35992 ft | 508 kts | 329° |
| 2026-05-04 02:06 | 38.88819 | -123.65880 | 35994 ft | 508 kts | 329° |
| 2026-05-04 02:06 | 38.97243 | -123.73137 | 36000 ft | 510 kts | 320° |
| 2026-05-04 02:07 | 39.01829 | -123.80084 | 36015 ft | 513 kts | 301° |
| 2026-05-04 02:07 | 39.05133 | -123.88161 | 36004 ft | 515 kts | 297° |
| 2026-05-04 02:08 | 39.12069 | -124.06816 | 36006 ft | 516 kts | 296° |
| 2026-05-04 02:08 | 39.24588 | -124.40253 | 35989 ft | 518 kts | 297° |
| 2026-05-04 02:09 | 39.37019 | -124.73807 | 35991 ft | 518 kts | 296° |
| 2026-05-04 02:09 | 39.49376 | -125.07542 | 35989 ft | 519 kts | 296° |
| 2026-05-04 02:10 | 39.61653 | -125.41445 | 35990 ft | 519 kts | 296° |
| 2026-05-04 02:10 | 39.73809 | -125.75408 | 35985 ft | 518 kts | 296° |
| 2026-05-04 02:11 | 39.85837 | -126.09413 | 35977 ft | 516 kts | 296° |
| 2026-05-04 02:11 | 39.97684 | -126.43302 | 35977 ft | 512 kts | 296° |
| 2026-05-04 02:12 | 40.01260 | -126.51869 | 35981 ft | 507 kts | 309° |
| 2026-05-04 02:12 | 40.03317 | -126.55521 | 35975 ft | 506 kts | 310° |
| 2026-05-04 02:12 | 40.11978 | -126.69974 | 35979 ft | 505 kts | 311° |
| 2026-05-04 02:13 | 40.29275 | -126.98944 | 35971 ft | 505 kts | 311° |
| 2026-05-04 02:13 | 40.43585 | -127.23082 | 35972 ft | 505 kts | 311° |
| 2026-05-04 02:14 | 40.60767 | -127.52308 | 35972 ft | 505 kts | 311° |
| 2026-05-04 02:14 | 40.93144 | -128.08131 | 35969 ft | 503 kts | 310° |
| 2026-05-04 02:15 | 41.26841 | -128.67344 | 35969 ft | 502 kts | 310° |
| 2026-05-04 02:15 | 41.60132 | -129.26985 | 35977 ft | 501 kts | 310° |
| 2026-05-04 02:16 | 41.92871 | -129.86818 | 35981 ft | 500 kts | 311° |
| 2026-05-04 02:16 | 42.07052 | -130.14655 | 36002 ft | 506 kts | 307° |
| 2026-05-04 02:17 | 42.21993 | -130.46811 | 36014 ft | 506 kts | 308° |
| 2026-05-04 02:17 | 42.44165 | -130.94775 | 36028 ft | 505 kts | 308° |
| 2026-05-04 02:18 | 42.73536 | -131.59559 | 36053 ft | 503 kts | 308° |
| 2026-05-04 02:18 | 43.02450 | -132.24705 | 36079 ft | 503 kts | 309° |
| 2026-05-04 02:19 | 43.30785 | -132.89964 | 36108 ft | 497 kts | 308° |
| 2026-05-04 02:19 | 43.58575 | -133.55472 | 36123 ft | 494 kts | 306° |
| 2026-05-04 02:20 | 43.85803 | -134.21123 | 36148 ft | 490 kts | 305° |
| 2026-05-04 02:20 | 44.12452 | -134.86875 | 36170 ft | 488 kts | 303° |
| 2026-05-04 02:21 | 44.38741 | -135.53283 | 36184 ft | 489 kts | 302° |
| 2026-05-04 02:21 | 44.64622 | -136.20235 | 36200 ft | 489 kts | 301° |
| 2026-05-04 02:22 | 44.90096 | -136.87748 | 36217 ft | 489 kts | 300° |
| 2026-05-04 02:22 | 45.15292 | -137.56173 | 36221 ft | 491 kts | 299° |
| 2026-05-04 02:23 | 45.40208 | -138.25600 | 36229 ft | 493 kts | 297° |
| 2026-05-04 02:23 | 45.64765 | -138.95793 | 36237 ft | 495 kts | 296° |
| 2026-05-04 02:24 | 45.88871 | -139.66576 | 36248 ft | 495 kts | 294° |
| 2026-05-04 02:24 | 46.03523 | -140.08148 | 36248 ft | 498 kts | 303° |
| 2026-05-04 02:25 | 46.13666 | -140.28594 | 36245 ft | 499 kts | 303° |
| 2026-05-04 02:25 | 46.45107 | -140.95932 | 36242 ft | 502 kts | 301° |
| 2026-05-04 02:26 | 46.75862 | -141.63351 | 36252 ft | 505 kts | 299° |
| 2026-05-04 02:26 | 47.06651 | -142.32524 | 36225 ft | 508 kts | 297° |
| 2026-05-04 02:27 | 47.37129 | -143.02758 | 36211 ft | 511 kts | 296° |
| 2026-05-04 02:27 | 47.67385 | -143.74297 | 36194 ft | 514 kts | 295° |
| 2026-05-04 02:28 | 47.97369 | -144.47113 | 36170 ft | 518 kts | 294° |
| 2026-05-04 02:28 | 48.27144 | -145.21415 | 36149 ft | 522 kts | 292° |
| 2026-05-04 02:29 | 48.56686 | -145.97233 | 36122 ft | 527 kts | 291° |
| 2026-05-04 02:29 | 48.86010 | -146.74710 | 36088 ft | 532 kts | 290° |
| 2026-05-04 02:30 | 49.15001 | -147.53623 | 36054 ft | 535 kts | 289° |
| 2026-05-04 02:30 | 49.43649 | -148.34024 | 36016 ft | 540 kts | 289° |
| 2026-05-04 02:31 | 49.71956 | -149.16025 | 35979 ft | 544 kts | 288° |
| 2026-05-04 02:31 | 49.99694 | -149.99063 | 35944 ft | 544 kts | 287° |
| 2026-05-04 02:32 | 50.01387 | -150.05048 | 36260 ft | 535 kts | 283° |
| 2026-05-04 02:32 | 50.02763 | -150.10383 | 36670 ft | 528 kts | 282° |
| 2026-05-04 02:32 | 50.04080 | -150.15695 | 36999 ft | 525 kts | 281° |
| 2026-05-04 02:32 | 50.05374 | -150.20992 | 37241 ft | 523 kts | 281° |
| 2026-05-04 02:33 | 50.06662 | -150.26274 | 37448 ft | 522 kts | 281° |
| 2026-05-04 02:33 | 50.07957 | -150.31557 | 37632 ft | 522 kts | 281° |
| 2026-05-04 02:33 | 50.09256 | -150.36828 | 37852 ft | 521 kts | 282° |
| 2026-05-04 02:33 | 50.10542 | -150.42033 | 37920 ft | 523 kts | 282° |
| 2026-05-04 02:34 | 50.13165 | -150.52656 | 37919 ft | 527 kts | 282° |
| 2026-05-04 02:34 | 50.15797 | -150.63317 | 37919 ft | 527 kts | 282° |
| 2026-05-04 02:35 | 50.20698 | -150.83317 | 37894 ft | 526 kts | 282° |
| 2026-05-04 02:35 | 50.25881 | -151.04695 | 37890 ft | 526 kts | 283° |
| 2026-05-04 02:36 | 50.31026 | -151.26121 | 37885 ft | 526 kts | 283° |
| 2026-05-04 02:36 | 50.36123 | -151.47572 | 37880 ft | 526 kts | 283° |
| 2026-05-04 02:37 | 50.41190 | -151.69101 | 37871 ft | 526 kts | 283° |
| 2026-05-04 02:37 | 50.46221 | -151.90687 | 37861 ft | 526 kts | 283° |
| 2026-05-04 02:38 | 50.51209 | -152.12303 | 37858 ft | 526 kts | 283° |
| 2026-05-04 02:38 | 50.60639 | -152.53794 | 37844 ft | 526 kts | 283° |
| 2026-05-04 02:39 | 50.70321 | -152.97265 | 37829 ft | 526 kts | 283° |
| 2026-05-04 02:39 | 50.79874 | -153.41068 | 37814 ft | 527 kts | 283° |
| 2026-05-04 02:40 | 50.89244 | -153.84960 | 37797 ft | 527 kts | 283° |
| 2026-05-04 02:40 | 50.98456 | -154.29062 | 37789 ft | 526 kts | 282° |
| 2026-05-04 02:41 | 51.07414 | -154.72911 | 37776 ft | 524 kts | 282° |
| 2026-05-04 02:41 | 51.16234 | -155.17064 | 37768 ft | 523 kts | 282° |
| 2026-05-04 02:42 | 51.24861 | -155.61246 | 37756 ft | 520 kts | 282° |
| 2026-05-04 02:42 | 51.33276 | -156.05350 | 37747 ft | 517 kts | 281° |
| 2026-05-04 02:43 | 51.41467 | -156.49316 | 37739 ft | 514 kts | 281° |
| 2026-05-04 02:43 | 51.49455 | -156.93212 | 37740 ft | 511 kts | 281° |
| 2026-05-04 02:44 | 51.64388 | -157.78206 | 37763 ft | 511 kts | 280° |
| 2026-05-04 02:44 | 51.79119 | -158.66424 | 37788 ft | 507 kts | 280° |
| 2026-05-04 02:45 | 51.93159 | -159.54942 | 37834 ft | 509 kts | 280° |
| 2026-05-04 02:45 | 52.06324 | -160.44053 | 37875 ft | 506 kts | 279° |
| 2026-05-04 02:46 | 52.18534 | -161.33210 | 37916 ft | 503 kts | 279° |
| 2026-05-04 02:46 | 52.29998 | -162.22266 | 37948 ft | 500 kts | 279° |
| 2026-05-04 02:47 | 52.40772 | -163.11633 | 37974 ft | 499 kts | 279° |
| 2026-05-04 02:47 | 52.50795 | -164.00727 | 37993 ft | 494 kts | 278° |
| 2026-05-04 02:48 | 52.60035 | -164.89157 | 38019 ft | 488 kts | 278° |
| 2026-05-04 02:48 | 52.68535 | -165.77030 | 38032 ft | 484 kts | 278° |
| 2026-05-04 02:49 | 52.76353 | -166.64892 | 38048 ft | 483 kts | 278° |
| 2026-05-04 02:49 | 52.83425 | -167.51894 | 38058 ft | 478 kts | 278° |
| 2026-05-04 02:50 | 52.89843 | -168.38892 | 38072 ft | 475 kts | 277° |
| 2026-05-04 02:50 | 52.95611 | -169.25910 | 38089 ft | 473 kts | 277° |
| 2026-05-04 02:51 | 52.99138 | -169.84640 | 38103 ft | 471 kts | 277° |
| 2026-05-04 02:51 | 52.99783 | -169.96195 | 38100 ft | 471 kts | 275° |
| 2026-05-04 02:52 | 52.99605 | -170.07084 | 38102 ft | 472 kts | 267° |
| 2026-05-04 02:52 | 52.98783 | -170.21958 | 38096 ft | 473 kts | 266° |
| 2026-05-04 02:53 | 52.97469 | -170.43650 | 38110 ft | 472 kts | 266° |
| 2026-05-04 02:53 | 52.96152 | -170.65278 | 38114 ft | 472 kts | 266° |
| 2026-05-04 02:54 | 52.94796 | -170.86918 | 38116 ft | 471 kts | 265° |
| 2026-05-04 02:54 | 52.93402 | -171.08524 | 38120 ft | 471 kts | 265° |
| 2026-05-04 02:55 | 52.91245 | -171.40775 | 38114 ft | 471 kts | 265° |
| 2026-05-04 02:56 | 52.89752 | -171.62353 | 38119 ft | 471 kts | 265° |
| 2026-05-04 02:56 | 52.88222 | -171.83892 | 38118 ft | 471 kts | 264° |
| 2026-05-04 02:57 | 52.86650 | -172.05449 | 38114 ft | 471 kts | 264° |
| 2026-05-04 02:57 | 52.85041 | -172.26970 | 38114 ft | 471 kts | 264° |
| 2026-05-04 02:58 | 52.83391 | -172.48505 | 38115 ft | 472 kts | 264° |
| 2026-05-04 02:58 | 52.81702 | -172.70024 | 38111 ft | 472 kts | 264° |
| 2026-05-04 02:59 | 52.79973 | -172.91533 | 38111 ft | 472 kts | 263° |
| 2026-05-04 02:59 | 52.78204 | -173.13047 | 38110 ft | 473 kts | 263° |
| 2026-05-04 03:00 | 52.76392 | -173.34581 | 38109 ft | 473 kts | 263° |
| 2026-05-04 03:00 | 52.74540 | -173.56114 | 38103 ft | 474 kts | 263° |
| 2026-05-04 03:01 | 52.72650 | -173.77624 | 38104 ft | 474 kts | 262° |
| 2026-05-04 03:01 | 52.70716 | -173.99160 | 38105 ft | 475 kts | 262° |
| 2026-05-04 03:02 | 52.68756 | -174.20541 | 38114 ft | 475 kts | 262° |
| 2026-05-04 03:02 | 52.66746 | -174.42020 | 38108 ft | 474 kts | 261° |
| 2026-05-04 03:03 | 52.64697 | -174.63486 | 38105 ft | 474 kts | 261° |
| 2026-05-04 03:03 | 52.62965 | -174.81318 | 38091 ft | 474 kts | 261° |
| 2026-05-04 03:04 | 52.60846 | -175.02738 | 38083 ft | 474 kts | 260° |
| 2026-05-04 03:04 | 52.58682 | -175.24190 | 38073 ft | 475 kts | 260° |
| 2026-05-04 03:05 | 52.56481 | -175.45614 | 38069 ft | 475 kts | 260° |
| 2026-05-04 03:05 | 52.54241 | -175.67026 | 38065 ft | 476 kts | 259° |
| 2026-05-04 03:06 | 52.51957 | -175.88459 | 38061 ft | 476 kts | 259° |
| 2026-05-04 03:06 | 52.49631 | -176.09903 | 38055 ft | 477 kts | 259° |
| 2026-05-04 03:07 | 52.47263 | -176.31351 | 38044 ft | 478 kts | 258° |
| 2026-05-04 03:07 | 52.44854 | -176.52793 | 38040 ft | 479 kts | 258° |
| 2026-05-04 03:08 | 52.42399 | -176.74267 | 38037 ft | 480 kts | 258° |
| 2026-05-04 03:08 | 52.39902 | -176.95763 | 38028 ft | 480 kts | 258° |
| 2026-05-04 03:09 | 52.37363 | -177.17243 | 38027 ft | 481 kts | 257° |
| 2026-05-04 03:09 | 52.34801 | -177.38586 | 38017 ft | 481 kts | 257° |
| 2026-05-04 03:10 | 52.32178 | -177.60074 | 38005 ft | 483 kts | 257° |
| 2026-05-04 03:10 | 52.29509 | -177.81588 | 38000 ft | 484 kts | 257° |
| 2026-05-04 03:11 | 52.26797 | -178.03121 | 37990 ft | 485 kts | 257° |
| 2026-05-04 03:11 | 52.24039 | -178.24683 | 37981 ft | 486 kts | 256° |
| 2026-05-04 03:12 | 52.21233 | -178.46268 | 37965 ft | 486 kts | 256° |
| 2026-05-04 03:12 | 52.18381 | -178.67875 | 37964 ft | 488 kts | 256° |
| 2026-05-04 03:13 | 52.15489 | -178.89476 | 37960 ft | 488 kts | 256° |
| 2026-05-04 03:13 | 52.10578 | -179.25448 | 37936 ft | 490 kts | 255° |
| 2026-05-04 03:14 | 52.04511 | -179.68679 | 37915 ft | 491 kts | 255° |
| 2026-05-04 03:14 | 51.98331 | 179.88113 | 37892 ft | 492 kts | 255° |
| 2026-05-04 03:15 | 51.92255 | 179.44743 | 37870 ft | 494 kts | 255° |
| 2026-05-04 03:15 | 51.85974 | 179.01404 | 37844 ft | 495 kts | 254° |
| 2026-05-04 03:16 | 51.79528 | 178.58129 | 37817 ft | 495 kts | 254° |
| 2026-05-04 03:16 | 51.72910 | 178.14888 | 37791 ft | 496 kts | 254° |
| 2026-05-04 03:17 | 51.66127 | 177.71755 | 37766 ft | 497 kts | 253° |
| 2026-05-04 03:17 | 51.59212 | 177.28923 | 37736 ft | 498 kts | 253° |
| 2026-05-04 03:18 | 51.52094 | 176.85893 | 37708 ft | 498 kts | 253° |
| 2026-05-04 03:18 | 51.44805 | 176.42950 | 37680 ft | 498 kts | 253° |
| 2026-05-04 03:19 | 51.37380 | 176.00244 | 37646 ft | 498 kts | 253° |
| 2026-05-04 03:19 | 51.29807 | 175.57725 | 37642 ft | 496 kts | 253° |
| 2026-05-04 03:20 | 51.26276 | 175.38274 | 37615 ft | 495 kts | 253° |
| 2026-05-04 03:20 | 51.23342 | 175.27711 | 37610 ft | 494 kts | 242° |
| 2026-05-04 03:21 | 51.12586 | 174.96899 | 37595 ft | 494 kts | 241° |
| 2026-05-04 03:21 | 50.86426 | 174.23379 | 37544 ft | 491 kts | 241° |
| 2026-05-04 03:22 | 50.59073 | 173.48699 | 37539 ft | 492 kts | 240° |
| 2026-05-04 03:22 | 50.31236 | 172.74872 | 37509 ft | 490 kts | 240° |
| 2026-05-04 03:23 | 50.03065 | 172.02229 | 37485 ft | 489 kts | 240° |
| 2026-05-04 03:23 | 49.74482 | 171.30534 | 37467 ft | 487 kts | 241° |
| 2026-05-04 03:24 | 49.45670 | 170.60179 | 37451 ft | 484 kts | 241° |
| 2026-05-04 03:24 | 49.16530 | 169.90874 | 37445 ft | 482 kts | 241° |
| 2026-05-04 03:25 | 48.87045 | 169.22521 | 37459 ft | 481 kts | 241° |
| 2026-05-04 03:25 | 48.64577 | 168.70237 | 37495 ft | 467 kts | 250° |
| 2026-05-04 03:26 | 48.62027 | 168.61290 | 37818 ft | 464 kts | 252° |
| 2026-05-04 03:26 | 48.59654 | 168.52911 | 38193 ft | 463 kts | 251° |
| 2026-05-04 03:26 | 48.56986 | 168.44047 | 38451 ft | 464 kts | 250° |
| 2026-05-04 03:26 | 48.54241 | 168.35238 | 38710 ft | 463 kts | 250° |
| 2026-05-04 03:27 | 48.48919 | 168.18317 | 39155 ft | 462 kts | 250° |
| 2026-05-04 03:27 | 48.43948 | 168.02567 | 39516 ft | 461 kts | 250° |
| 2026-05-04 03:27 | 48.42563 | 167.98194 | 39531 ft | 463 kts | 250° |
| 2026-05-04 03:28 | 48.23158 | 167.37732 | 39569 ft | 460 kts | 250° |
| 2026-05-04 03:28 | 48.00715 | 166.69554 | 39617 ft | 454 kts | 250° |
| 2026-05-04 03:29 | 47.78170 | 166.02850 | 39678 ft | 446 kts | 250° |
| 2026-05-04 03:29 | 47.55702 | 165.38032 | 39715 ft | 438 kts | 250° |
| 2026-05-04 03:30 | 47.33432 | 164.75336 | 39772 ft | 423 kts | 251° |
| 2026-05-04 03:30 | 47.11685 | 164.15497 | 39821 ft | 412 kts | 251° |
| 2026-05-04 03:31 | 46.89904 | 163.56880 | 39855 ft | 408 kts | 252° |
| 2026-05-04 03:31 | 46.68125 | 162.99520 | 39912 ft | 399 kts | 252° |
| 2026-05-04 03:32 | 46.46542 | 162.43837 | 39922 ft | 391 kts | 251° |
| 2026-05-04 03:32 | 46.22739 | 161.90515 | 39952 ft | 394 kts | 248° |
| 2026-05-04 03:33 | 45.98083 | 161.37966 | 39975 ft | 396 kts | 247° |
| 2026-05-04 03:33 | 45.73102 | 160.85815 | 39988 ft | 395 kts | 246° |
| 2026-05-04 03:34 | 45.48056 | 160.34480 | 39999 ft | 391 kts | 245° |
| 2026-05-04 03:34 | 45.23104 | 159.84230 | 40009 ft | 386 kts | 245° |
| 2026-05-04 03:35 | 44.98376 | 159.35284 | 40009 ft | 383 kts | 244° |
| 2026-05-04 03:35 | 44.73421 | 158.86732 | 39994 ft | 382 kts | 244° |
| 2026-05-04 03:36 | 44.48172 | 158.38422 | 39991 ft | 384 kts | 243° |
| 2026-05-04 03:36 | 44.22626 | 157.90360 | 39982 ft | 386 kts | 242° |
| 2026-05-04 03:37 | 43.96830 | 157.42618 | 39963 ft | 386 kts | 242° |
| 2026-05-04 03:37 | 43.70752 | 156.95140 | 39962 ft | 387 kts | 241° |
| 2026-05-04 03:38 | 43.44443 | 156.48002 | 39943 ft | 389 kts | 240° |
| 2026-05-04 03:38 | 43.17741 | 156.00934 | 39939 ft | 391 kts | 239° |
| 2026-05-04 03:39 | 42.90643 | 155.54191 | 39926 ft | 393 kts | 238° |
| 2026-05-04 03:39 | 42.62926 | 155.08075 | 39914 ft | 394 kts | 238° |
| 2026-05-04 03:40 | 42.35032 | 154.62335 | 39905 ft | 394 kts | 237° |
| 2026-05-04 03:40 | 42.06947 | 154.16979 | 39889 ft | 393 kts | 237° |
| 2026-05-04 03:41 | 41.78662 | 153.71986 | 39868 ft | 395 kts | 237° |
| 2026-05-04 03:41 | 41.50080 | 153.27197 | 39844 ft | 396 kts | 236° |
| 2026-05-04 03:42 | 41.21198 | 152.82612 | 39829 ft | 398 kts | 235° |
| 2026-05-04 03:42 | 40.92316 | 152.38670 | 39805 ft | 398 kts | 235° |
| 2026-05-04 03:43 | 40.63071 | 151.94821 | 39782 ft | 398 kts | 234° |
| 2026-05-04 03:43 | 40.33680 | 151.51390 | 39759 ft | 397 kts | 233° |
| 2026-05-04 03:44 | 40.04113 | 151.08312 | 39747 ft | 399 kts | 233° |
| 2026-05-04 03:44 | 39.74220 | 150.65366 | 39731 ft | 402 kts | 232° |
| 2026-05-04 03:45 | 39.43775 | 150.22239 | 39720 ft | 406 kts | 232° |
| 2026-05-04 03:45 | 39.17159 | 149.85004 | 39706 ft | 406 kts | 233° |
| 2026-05-04 03:46 | 39.13894 | 149.79144 | 39709 ft | 401 kts | 242° |
| 2026-05-04 03:46 | 39.11088 | 149.72942 | 39710 ft | 400 kts | 243° |
| 2026-05-04 03:47 | 39.05658 | 149.60559 | 39701 ft | 400 kts | 243° |
| 2026-05-04 03:47 | 38.83456 | 149.10883 | 39689 ft | 401 kts | 242° |
| 2026-05-04 03:48 | 38.61084 | 148.61610 | 39669 ft | 400 kts | 242° |
| 2026-05-04 03:48 | 38.38516 | 148.12672 | 39670 ft | 400 kts | 241° |
| 2026-05-04 03:49 | 38.15807 | 147.64165 | 39667 ft | 401 kts | 240° |
| 2026-05-04 03:49 | 37.92720 | 147.15587 | 39663 ft | 402 kts | 240° |
| 2026-05-04 03:50 | 37.69429 | 146.67314 | 39658 ft | 402 kts | 239° |
| 2026-05-04 03:50 | 37.45897 | 146.19226 | 39652 ft | 402 kts | 239° |
| 2026-05-04 03:51 | 37.22210 | 145.71546 | 39655 ft | 402 kts | 238° |
| 2026-05-04 03:51 | 37.18037 | 145.61288 | 39659 ft | 403 kts | 248° |
| 2026-05-04 03:52 | 37.11820 | 145.39819 | 39667 ft | 402 kts | 248° |
| 2026-05-04 03:52 | 36.98774 | 144.96471 | 39649 ft | 400 kts | 247° |
| 2026-05-04 03:53 | 36.82951 | 144.44719 | 39654 ft | 397 kts | 246° |
| 2026-05-04 03:53 | 36.66972 | 143.93419 | 39623 ft | 396 kts | 246° |
| 2026-05-04 03:54 | 36.50848 | 143.42597 | 39626 ft | 392 kts | 245° |
| 2026-05-04 03:54 | 36.34672 | 142.92506 | 39613 ft | 390 kts | 245° |
| 2026-05-04 03:55 | 36.18341 | 142.42773 | 39607 ft | 389 kts | 245° |
| 2026-05-04 03:55 | 36.08672 | 142.15985 | 39605 ft | 387 kts | 243° |
| 2026-05-04 03:56 | 36.06938 | 142.11208 | 39604 ft | 387 kts | 243° |
| 2026-05-04 03:56 | 36.04751 | 142.05123 | 39606 ft | 387 kts | 243° |
| 2026-05-04 03:57 | 35.98114 | 141.86668 | 39604 ft | 387 kts | 243° |
| 2026-05-04 03:57 | 35.94747 | 141.75408 | 39600 ft | 393 kts | 255° |
| 2026-05-04 03:58 | 35.94399 | 141.65156 | 39600 ft | 402 kts | 263° |
| 2026-05-04 03:58 | 35.94434 | 141.61715 | 39301 ft | 401 kts | 263° |
| 2026-05-04 03:58 | 35.94476 | 141.58273 | 38665 ft | 402 kts | 263° |
| 2026-05-04 03:59 | 35.94512 | 141.54818 | 37930 ft | 404 kts | 263° |
| 2026-05-04 03:59 | 35.94539 | 141.51343 | 37190 ft | 405 kts | 263° |
| 2026-05-04 03:59 | 35.94559 | 141.47869 | 36532 ft | 405 kts | 263° |
| 2026-05-04 03:59 | 35.94575 | 141.44391 | 35862 ft | 406 kts | 263° |
| 2026-05-04 04:00 | 35.94587 | 141.40903 | 35176 ft | 407 kts | 263° |
| 2026-05-04 04:00 | 35.94596 | 141.37392 | 34475 ft | 409 kts | 263° |
| 2026-05-04 04:00 | 35.94603 | 141.33862 | 33676 ft | 413 kts | 263° |
| 2026-05-04 04:00 | 35.94608 | 141.30297 | 32785 ft | 417 kts | 263° |
| 2026-05-04 04:01 | 35.94612 | 141.26701 | 31937 ft | 420 kts | 263° |
| 2026-05-04 04:01 | 35.94619 | 141.23087 | 31098 ft | 422 kts | 264° |
| 2026-05-04 04:01 | 35.94631 | 141.19500 | 30290 ft | 425 kts | 264° |
| 2026-05-04 04:01 | 35.94642 | 141.15853 | 29405 ft | 427 kts | 264° |
| 2026-05-04 04:02 | 35.94648 | 141.12175 | 28446 ft | 429 kts | 264° |
| 2026-05-04 04:02 | 35.94653 | 141.08505 | 27789 ft | 425 kts | 264° |
| 2026-05-04 04:02 | 35.94659 | 141.04873 | 27161 ft | 421 kts | 264° |
| 2026-05-04 04:02 | 35.94668 | 141.01232 | 26502 ft | 417 kts | 264° |
| 2026-05-04 04:03 | 35.94940 | 140.97702 | 25883 ft | 422 kts | 273° |
| 2026-05-04 04:03 | 35.95776 | 140.94187 | 25230 ft | 433 kts | 283° |
| 2026-05-04 04:03 | 35.97144 | 140.90839 | 24548 ft | 440 kts | 289° |
| 2026-05-04 04:03 | 35.98703 | 140.87582 | 23887 ft | 441 kts | 291° |
| 2026-05-04 04:04 | 36.00341 | 140.84394 | 23278 ft | 439 kts | 292° |
| 2026-05-04 04:04 | 36.01999 | 140.81256 | 22507 ft | 431 kts | 292° |
| 2026-05-04 04:04 | 36.03619 | 140.78207 | 21753 ft | 418 kts | 292° |
| 2026-05-04 04:04 | 36.05184 | 140.75240 | 21084 ft | 405 kts | 292° |
| 2026-05-04 04:05 | 36.06689 | 140.72344 | 20453 ft | 399 kts | 291° |
| 2026-05-04 04:05 | 36.08167 | 140.69450 | 19881 ft | 397 kts | 291° |
| 2026-05-04 04:05 | 36.09628 | 140.66569 | 19313 ft | 394 kts | 291° |
| 2026-05-04 04:05 | 36.11077 | 140.63693 | 18734 ft | 392 kts | 291° |
| 2026-05-04 04:06 | 36.12513 | 140.60843 | 18147 ft | 390 kts | 291° |
| 2026-05-04 04:06 | 36.13948 | 140.58002 | 17522 ft | 387 kts | 291° |
| 2026-05-04 04:06 | 36.15366 | 140.55197 | 16908 ft | 383 kts | 291° |
| 2026-05-04 04:06 | 36.16774 | 140.52415 | 16311 ft | 379 kts | 291° |
| 2026-05-04 04:07 | 36.18167 | 140.49659 | 15722 ft | 376 kts | 291° |
| 2026-05-04 04:07 | 36.19551 | 140.46919 | 15123 ft | 374 kts | 291° |
| 2026-05-04 04:07 | 36.21114 | 140.44309 | 14543 ft | 385 kts | 302° |
| 2026-05-04 04:07 | 36.23216 | 140.42168 | 14104 ft | 396 kts | 315° |
| 2026-05-04 04:08 | 36.25533 | 140.40297 | 13698 ft | 398 kts | 316° |
| 2026-05-04 04:08 | 36.27848 | 140.38483 | 13460 ft | 387 kts | 316° |
| 2026-05-04 04:08 | 36.30083 | 140.36729 | 13250 ft | 373 kts | 316° |
| 2026-05-04 04:08 | 36.32209 | 140.35047 | 13032 ft | 361 kts | 316° |
| 2026-05-04 04:09 | 36.34292 | 140.33394 | 12763 ft | 338 kts | 316° |
| 2026-05-04 04:09 | 36.36175 | 140.31906 | 12463 ft | 314 kts | 315° |
| 2026-05-04 04:09 | 36.37945 | 140.30481 | 12138 ft | 291 kts | 313° |
| 2026-05-04 04:09 | 36.39321 | 140.28877 | 11831 ft | 253 kts | 293° |
| 2026-05-04 04:10 | 36.40002 | 140.27041 | 11559 ft | 219 kts | 274° |
| 2026-05-04 04:10 | 36.40099 | 140.25269 | 11300 ft | 199 kts | 258° |
| 2026-05-04 04:10 | 36.39838 | 140.23578 | 11059 ft | 200 kts | 252° |
| 2026-05-04 04:10 | 36.39497 | 140.21894 | 10828 ft | 202 kts | 252° |
| 2026-05-04 04:11 | 36.39151 | 140.20194 | 10585 ft | 203 kts | 252° |
| 2026-05-04 04:11 | 36.38809 | 140.18484 | 10338 ft | 205 kts | 253° |
| 2026-05-04 04:11 | 36.38465 | 140.16759 | 10120 ft | 208 kts | 253° |
| 2026-05-04 04:11 | 36.38123 | 140.15024 | 9886 ft | 207 kts | 253° |
| 2026-05-04 04:12 | 36.37782 | 140.13287 | 9650 ft | 208 kts | 253° |
| 2026-05-04 04:12 | 36.37438 | 140.11540 | 9444 ft | 209 kts | 253° |
| 2026-05-04 04:12 | 36.37092 | 140.09786 | 9201 ft | 208 kts | 253° |
| 2026-05-04 04:12 | 36.36748 | 140.08035 | 8977 ft | 210 kts | 253° |
| 2026-05-04 04:13 | 36.36401 | 140.06275 | 8756 ft | 210 kts | 253° |
| 2026-05-04 04:13 | 36.36054 | 140.04519 | 8531 ft | 210 kts | 254° |
| 2026-05-04 04:13 | 36.35581 | 140.02807 | 8298 ft | 210 kts | 241° |
| 2026-05-04 04:13 | 36.34647 | 140.01441 | 8078 ft | 210 kts | 218° |
| 2026-05-04 04:14 | 36.33280 | 140.00748 | 8006 ft | 221 kts | 194° |
| 2026-05-04 04:14 | 36.31722 | 140.00818 | 8002 ft | 228 kts | 177° |
| 2026-05-04 04:14 | 36.30160 | 140.01177 | 7998 ft | 229 kts | 175° |
| 2026-05-04 04:14 | 36.28617 | 140.01556 | 7994 ft | 229 kts | 176° |
| 2026-05-04 04:15 | 36.27049 | 140.01930 | 7994 ft | 229 kts | 176° |
| 2026-05-04 04:15 | 36.25480 | 140.02293 | 7993 ft | 229 kts | 176° |
| 2026-05-04 04:15 | 36.23913 | 140.02651 | 7990 ft | 229 kts | 176° |
| 2026-05-04 04:15 | 36.22343 | 140.03007 | 7983 ft | 229 kts | 176° |
| 2026-05-04 04:16 | 36.20775 | 140.03360 | 7982 ft | 229 kts | 176° |
| 2026-05-04 04:16 | 36.19211 | 140.03714 | 7982 ft | 229 kts | 176° |
| 2026-05-04 04:16 | 36.17686 | 140.04358 | 7973 ft | 239 kts | 156° |
| 2026-05-04 04:16 | 36.16413 | 140.05754 | 7975 ft | 249 kts | 138° |
| 2026-05-04 04:17 | 36.15303 | 140.07414 | 7977 ft | 251 kts | 136° |
| 2026-05-04 04:17 | 36.14206 | 140.09101 | 7977 ft | 252 kts | 136° |
| 2026-05-04 04:17 | 36.13102 | 140.10781 | 7984 ft | 252 kts | 136° |
| 2026-05-04 04:17 | 36.11990 | 140.12459 | 7976 ft | 252 kts | 137° |
| 2026-05-04 04:18 | 36.10868 | 140.14127 | 7972 ft | 252 kts | 139° |
| 2026-05-04 04:18 | 36.09563 | 140.15487 | 7978 ft | 241 kts | 158° |
| 2026-05-04 04:18 | 36.08087 | 140.16438 | 7983 ft | 238 kts | 163° |
| 2026-05-04 04:18 | 36.06588 | 140.17311 | 7971 ft | 238 kts | 163° |
| 2026-05-04 04:19 | 36.05089 | 140.18182 | 7962 ft | 238 kts | 163° |
| 2026-05-04 04:19 | 36.03595 | 140.19059 | 7975 ft | 237 kts | 163° |
| 2026-05-04 04:19 | 36.02087 | 140.19814 | 7971 ft | 230 kts | 175° |
| 2026-05-04 04:19 | 36.00543 | 140.20046 | 7962 ft | 221 kts | 186° |
| 2026-05-04 04:20 | 35.99010 | 140.20082 | 7960 ft | 220 kts | 187° |
| 2026-05-04 04:20 | 35.97482 | 140.20101 | 7942 ft | 219 kts | 187° |
| 2026-05-04 04:20 | 35.95953 | 140.20125 | 7938 ft | 220 kts | 187° |
| 2026-05-04 04:20 | 35.94441 | 140.20154 | 7941 ft | 220 kts | 187° |
| 2026-05-04 04:21 | 35.92910 | 140.20186 | 7927 ft | 220 kts | 188° |
| 2026-05-04 04:21 | 35.91425 | 140.19929 | 7920 ft | 211 kts | 206° |
| 2026-05-04 04:21 | 35.90218 | 140.19001 | 7907 ft | 203 kts | 228° |
| 2026-05-04 04:21 | 35.89451 | 140.17569 | 7832 ft | 201 kts | 244° |
| 2026-05-04 04:22 | 35.88900 | 140.15984 | 7729 ft | 202 kts | 246° |
| 2026-05-04 04:22 | 35.88370 | 140.14381 | 7633 ft | 202 kts | 246° |
| 2026-05-04 04:22 | 35.87834 | 140.12781 | 7524 ft | 202 kts | 246° |
| 2026-05-04 04:22 | 35.87294 | 140.11187 | 7442 ft | 202 kts | 246° |
| 2026-05-04 04:23 | 35.86783 | 140.09686 | 7349 ft | 202 kts | 246° |
| 2026-05-04 04:23 | 35.86250 | 140.08131 | 7251 ft | 202 kts | 246° |
| 2026-05-04 04:23 | 35.85702 | 140.06537 | 7160 ft | 202 kts | 245° |
| 2026-05-04 04:23 | 35.85152 | 140.04943 | 7056 ft | 202 kts | 245° |
| 2026-05-04 04:24 | 35.84600 | 140.03343 | 6955 ft | 203 kts | 246° |
| 2026-05-04 04:24 | 35.84048 | 140.01743 | 6850 ft | 203 kts | 246° |
| 2026-05-04 04:24 | 35.83495 | 140.00144 | 6766 ft | 203 kts | 246° |
| 2026-05-04 04:24 | 35.82947 | 139.98543 | 6661 ft | 202 kts | 245° |
| 2026-05-04 04:25 | 35.82395 | 139.96948 | 6562 ft | 203 kts | 245° |
| 2026-05-04 04:25 | 35.81839 | 139.95346 | 6448 ft | 203 kts | 245° |
| 2026-05-04 04:25 | 35.81283 | 139.93744 | 6358 ft | 204 kts | 245° |
| 2026-05-04 04:25 | 35.80734 | 139.92154 | 6268 ft | 205 kts | 245° |
| 2026-05-04 04:26 | 35.80174 | 139.90541 | 6164 ft | 205 kts | 245° |
| 2026-05-04 04:26 | 35.79634 | 139.88917 | 6067 ft | 206 kts | 249° |
| 2026-05-04 04:26 | 35.79438 | 139.87164 | 5945 ft | 212 kts | 270° |
| 2026-05-04 04:26 | 35.79782 | 139.85384 | 5744 ft | 216 kts | 283° |
| 2026-05-04 04:27 | 35.80283 | 139.83640 | 5552 ft | 217 kts | 284° |
| 2026-05-04 04:27 | 35.80795 | 139.81894 | 5384 ft | 214 kts | 283° |
| 2026-05-04 04:27 | 35.81172 | 139.80193 | 5215 ft | 202 kts | 275° |
| 2026-05-04 04:27 | 35.81434 | 139.78492 | 5036 ft | 202 kts | 274° |
| 2026-05-04 04:28 | 35.81675 | 139.76793 | 4935 ft | 203 kts | 275° |
| 2026-05-04 04:28 | 35.81916 | 139.75103 | 4924 ft | 196 kts | 274° |
| 2026-05-04 04:28 | 35.82120 | 139.73467 | 4669 ft | 190 kts | 269° |
| 2026-05-04 04:28 | 35.82165 | 139.71839 | 4438 ft | 194 kts | 265° |
| 2026-05-04 04:29 | 35.82157 | 139.70153 | 4370 ft | 197 kts | 265° |
| 2026-05-04 04:29 | 35.82151 | 139.68504 | 4189 ft | 190 kts | 265° |
| 2026-05-04 04:29 | 35.82148 | 139.66893 | 3991 ft | 184 kts | 265° |
| 2026-05-04 04:29 | 35.81992 | 139.65350 | 3966 ft | 180 kts | 248° |
| 2026-05-04 04:30 | 35.81316 | 139.64101 | 3966 ft | 176 kts | 220° |
| 2026-05-04 04:30 | 35.80206 | 139.63496 | 3967 ft | 178 kts | 192° |
| 2026-05-04 04:30 | 35.78958 | 139.63453 | 3959 ft | 182 kts | 180° |
| 2026-05-04 04:30 | 35.77709 | 139.63814 | 3959 ft | 187 kts | 166° |
| 2026-05-04 04:31 | 35.76514 | 139.64484 | 3960 ft | 190 kts | 159° |
| 2026-05-04 04:31 | 35.75384 | 139.65261 | 3951 ft | 187 kts | 157° |
| 2026-05-04 04:31 | 35.74250 | 139.66080 | 3955 ft | 186 kts | 157° |
| 2026-05-04 04:31 | 35.73164 | 139.66866 | 3957 ft | 178 kts | 158° |
| 2026-05-04 04:32 | 35.72157 | 139.67585 | 3939 ft | 156 kts | 160° |
| 2026-05-04 04:32 | 35.71260 | 139.68215 | 3950 ft | 145 kts | 161° |
| 2026-05-04 04:32 | 35.70379 | 139.68824 | 3908 ft | 146 kts | 161° |
| 2026-05-04 04:32 | 35.69484 | 139.69450 | 3677 ft | 149 kts | 159° |
| 2026-05-04 04:33 | 35.68609 | 139.70118 | 3471 ft | 147 kts | 158° |
| 2026-05-04 04:33 | 35.67754 | 139.70809 | 3257 ft | 146 kts | 158° |
| 2026-05-04 04:33 | 35.66900 | 139.71491 | 2941 ft | 148 kts | 159° |
| 2026-05-04 04:33 | 35.66024 | 139.72168 | 2592 ft | 148 kts | 160° |
| 2026-05-04 04:34 | 35.65138 | 139.72792 | 2297 ft | 144 kts | 162° |
| 2026-05-04 04:34 | 35.64257 | 139.73332 | 2007 ft | 139 kts | 165° |
| 2026-05-04 04:34 | 35.63408 | 139.73877 | 1739 ft | 137 kts | 161° |
| 2026-05-04 04:34 | 35.62582 | 139.74445 | 1454 ft | 134 kts | 161° |
| 2026-05-04 04:35 | 35.61788 | 139.74991 | 1205 ft | 131 kts | 158° |
| 2026-05-04 04:35 | 35.60993 | 139.75543 | 917 ft | 132 kts | 157° |
| 2026-05-04 04:35 | 35.60195 | 139.76117 | 728 ft | 134 kts | 157° |
| 2026-05-04 04:35 | 35.59392 | 139.76692 | 617 ft | 133 kts | 156° |
| 2026-05-04 04:36 | 35.58592 | 139.77274 | 485 ft | 134 kts | 158° |
| 2026-05-04 04:36 | 35.57794 | 139.77848 | 355 ft | 133 kts | 160° |
| 2026-05-04 04:36 | 35.56980 | 139.78391 | 170 ft | 134 kts | 158° |
| 2026-05-04 04:36 | 35.56185 | 139.78962 | 57 ft | 132 kts | 158° |
| 2026-05-04 04:37 | 35.54739 | 139.79917 | 34 ft | 27 kts | 169° |
| 2026-05-04 04:37 | 35.54625 | 139.79928 | 32 ft | 11 kts | 184° |
| 2026-05-04 04:38 | 35.54579 | 139.79879 | 30 ft | 9 kts | 237° |
| 2026-05-04 04:38 | 35.54549 | 139.79812 | 29 ft | 10 kts | 240° |
| 2026-05-04 04:38 | 35.54532 | 139.79781 | 29 ft | 1 kts | 227° |
| 2026-05-04 04:38 | 35.54530 | 139.79777 | 29 ft | 2 kts | 235° |
| 2026-05-04 04:39 | 35.54559 | 139.79714 | 30 ft | 19 kts | 325° |
| 2026-05-04 04:39 | 35.54693 | 139.79617 | 30 ft | 23 kts | 329° |
| 2026-05-04 04:39 | 35.54740 | 139.79509 | 33 ft | 14 kts | 256° |
| 2026-05-04 04:39 | 35.54696 | 139.79407 | 34 ft | 14 kts | 239° |
| 2026-05-04 04:40 | 35.54648 | 139.79305 | 35 ft | 13 kts | 239° |
| 2026-05-04 04:40 | 35.54605 | 139.79215 | 39 ft | 11 kts | 240° |
| 2026-05-04 04:40 | 35.54572 | 139.79145 | 42 ft | 9 kts | 240° |
| 2026-05-04 04:40 | 35.54543 | 139.79084 | 44 ft | 9 kts | 240° |
| 2026-05-04 04:41 | 35.54503 | 139.79000 | 46 ft | 15 kts | 239° |
| 2026-05-04 04:41 | 35.54436 | 139.78862 | 40 ft | 22 kts | 239° |
| 2026-05-04 04:41 | 35.54356 | 139.78690 | 37 ft | 24 kts | 240° |
| 2026-05-04 04:41 | 35.54267 | 139.78502 | 30 ft | 25 kts | 239° |
| 2026-05-04 04:42 | 35.54249 | 139.78465 | 29 ft | 1 kts | 240° |
| 2026-05-04 04:42 | 35.54231 | 139.78427 | 29 ft | 6 kts | 240° |
| 2026-05-04 04:42 | 35.54207 | 139.78377 | 28 ft | 4 kts | 239° |
| 2026-05-04 04:42 | 35.54199 | 139.78359 | 28 ft | 0 kts | 240° |
| 2026-05-04 04:43 | 35.54196 | 139.78352 | 26 ft | 6 kts | 240° |
| 2026-05-04 04:43 | 35.54157 | 139.78272 | 28 ft | 13 kts | 239° |
| 2026-05-04 04:43 | 35.54129 | 139.78212 | 29 ft | 12 kts | 239° |
| 2026-05-04 04:44 | 35.54078 | 139.78064 | 26 ft | 15 kts | 275° |
| 2026-05-04 04:44 | 35.54145 | 139.77967 | 30 ft | 16 kts | 328° |
| 2026-05-04 04:44 | 35.54252 | 139.77891 | 31 ft | 20 kts | 330° |
| 2026-05-04 04:44 | 35.54384 | 139.77797 | 30 ft | 23 kts | 330° |
| 2026-05-04 04:45 | 35.54481 | 139.77728 | 32 ft | 24 kts | 329° |
| 2026-05-04 04:45 | 35.54630 | 139.77620 | 27 ft | 26 kts | 330° |
| 2026-05-04 04:45 | 35.54790 | 139.77506 | 31 ft | 27 kts | 330° |
| 2026-05-04 04:47 | 35.55113 | 139.77040 | 28 ft | 8 kts | 241° |
| 2026-05-04 04:47 | 35.55083 | 139.76972 | 28 ft | 10 kts | 241° |
| 2026-05-04 04:47 | 35.55032 | 139.76936 | 28 ft | 9 kts | 175° |
| 2026-05-04 04:47 | 35.54992 | 139.76958 | 28 ft | 4 kts | 151° |
| 2026-05-04 04:48 | 35.54983 | 139.76964 | 28 ft | 0 kts | 151° |
| 2026-05-04 04:49 | 35.54977 | 139.76968 | 29 ft | 0 kts | 150° |